Flight Track Log - Related Links

Times and Time Zones

All times are in EDT time to prevent confusion due to time zone crossing. See the BJS542 flight status page for this flight to view local times or setup timezone preferences in your user account.


Time Position Orientation Groundspeed Altitude Reporting Facility
EDT Latitude Longitude Course Direction KTS MPH feet Rate Location/Type
Fri 10:44:18 AM 40.0664 -92.5081 78° East 245 282 3,600  Level Kansas City Center
Fri 10:45:19 AM 40.0839 -92.4022 78° East 278 320 10,300 5,415 Climbing Kansas City Center
Fri 10:46:21 AM 40.1122 -92.2867 72° East 330 380 14,700 3,854 Climbing Kansas City Center
Fri 10:47:22 AM 40.1431 -92.1575 73° East 365 420 18,200 3,171 Climbing Kansas City Center
Fri 10:48:24 AM 40.1781 -92.0100 73° East 416 479 21,200 2,226 Climbing Kansas City Center
Fri 10:49:26 AM 40.2156 -91.8489 73° East 463 533 22,800 1,824 Climbing Kansas City Center
Fri 10:50:29 AM 40.2642 -91.6475 72° East 486 559 25,000 2,049 Climbing Kansas City Center
Fri 10:51:29 AM 40.3047 -91.4767 73° East 492 566 27,000 2,479 Climbing Kansas City Center
Fri 10:52:30 AM 40.3453 -91.2994 73° East 508 585 30,000 2,496 Climbing Kansas City Center
Fri 10:53:34 AM 40.3906 -91.0989 73° East 515 593 32,200 1,733 Climbing Kansas City Center
Fri 10:54:00 AM 40.4083 -91.0236 73° East 522 601 32,600 545 Climbing Chicago Center
Fri 10:55:02 AM 40.4517 -90.8317 73° East 543 625 33,000 677 Climbing Chicago Center
Fri 10:56:04 AM 40.4944 -90.6439 73° East 539 620 34,000 1,548 Climbing Chicago Center
Fri 10:57:06 AM 40.5356 -90.4550 74° East 538 619 36,200 2,032 Climbing Chicago Center
Fri 10:58:08 AM 40.5933 -90.2294 71° East 534 615 38,200 1,887 Climbing Chicago Center
Fri 10:59:10 AM 40.6608 -90.0594 62° Northeast 525 604 40,100 1,984 Climbing Chicago Center
Fri 11:00:12 AM 40.7278 -89.8953 62° Northeast 515 593 42,300 1,839 Climbing Chicago Center
Fri 11:01:14 AM 40.7958 -89.7400 60° Northeast 497 572 43,900 1,317 Climbing Chicago Center
Fri 11:02:15 AM 40.8611 -89.5881 60° Northeast 479 551 45,000 537 Climbing Chicago Center
Fri 11:03:17 AM 40.9317 -89.4164 61° Northeast 485 558 45,000  Level Chicago Center
Fri 11:04:19 AM 40.9975 -89.2550 62° Northeast 495 570 45,000  Level Chicago Center
Fri 11:05:21 AM 41.0692 -89.0781 62° Northeast 498 573 45,000  Level Chicago Center
Fri 11:06:23 AM 41.1325 -88.9203 62° Northeast 491 565 45,000  Level Chicago Center
Fri 11:07:25 AM 41.1956 -88.7622 62° Northeast 488 562 45,000  Level Chicago Center
Fri 11:08:26 AM 41.2581 -88.6047 62° Northeast 485 558 45,000  Level Chicago Center
Fri 11:09:28 AM 41.3214 -88.4458 62° Northeast 481 554 45,000  Level Chicago Center
Fri 11:10:30 AM 41.3978 -88.2542 62° Northeast 488 562 45,000  Level Chicago Center
Fri 11:11:32 AM 41.4553 -88.1058 63° Northeast 489 563 45,000 -339 Level Chicago Center
Fri 11:12:34 AM 41.5222 -87.9475 61° Northeast 488 562 44,300 -919 Descending Chicago Center
Fri 11:13:36 AM 41.5922 -87.7547 64° Northeast 505 581 43,100 -1,073 Descending Chicago Center
Fri 11:14:37 AM 41.6558 -87.5897 63° Northeast 502 578 42,100 -976 Descending Chicago Center
Fri 11:15:39 AM 41.7203 -87.4231 63° Northeast 505 581 41,100 -968 Descending Chicago Center
Fri 11:16:41 AM 41.7822 -87.2578 63° Northeast 501 577 40,100 -968 Descending Chicago Center
Fri 11:17:43 AM 41.8442 -87.0919 63° Northeast 500 575 39,100 -968 Descending Chicago Center
Fri 11:18:45 AM 41.9086 -86.9242 63° Northeast 505 581 38,100 -1,500 Descending Chicago Center
Fri 11:19:47 AM 42.0017 -86.7331 57° Northeast 513 590 36,000 -1,805 Descending Chicago Center
Fri 11:20:48 AM 42.0808 -86.6108 63° Northeast 518 596 34,400 -2,098 Descending Chicago Center
Fri 11:21:00 AM 42.0446 -86.5370 63° Northeast  Level FlightAware Approximate
Fri 11:21:50 AM 42.1892 -86.4344 50° Northeast 510 587 31,700  Level Chicago Center
Fri 11:22:52 AM 42.2831 -86.2825 50° Northeast 522 601 29,500 -2,081 Descending Chicago Center
Fri 11:23:54 AM 42.3728 -86.1528 47° Northeast 513 590 27,400 -2,081 Descending Chicago Center
Fri 11:24:56 AM 42.4586 -86.0189 49° Northeast 487 560 25,200 -1,645 Descending Chicago Center
Fri 11:25:58 AM 42.5056 -85.8136 73° East 481 554 24,000 -919 Descending Chicago Center
Fri 11:27:00 AM 42.5389 -85.6472 75° East 466 536 23,300 -726 Descending Chicago Center
Fri 11:28:02 AM 42.5703 -85.4789 76° East 465 535 22,500 -732 Descending Chicago Center
Fri 11:29:03 AM 42.6011 -85.3128 76° East 461 531 21,800 -683 Descending Chicago Center
Fri 11:30:05 AM 42.6317 -85.1478 76° East 457 526 21,100 -387 Descending Chicago Center
Fri 11:31:07 AM 42.6683 -84.9558 75° East 443 510 21,000 -1,065 Descending Chicago Center
Fri 11:32:09 AM 42.6975 -84.8006 76° East 428 493 18,900 -1,742 Descending Chicago Center
Fri 11:33:11 AM 42.7181 -84.6489 79° East 413 475 17,400 -1,750 Descending Chicago Center
Fri 11:34:09 AM 42.7150 -84.4917 91° East 411 473 15,400 -1,983 Descending Cleveland Center
Fri 11:35:09 AM 42.7114 -84.3472 92° East 398 458 13,500 -1,955 Descending Cleveland Center
Fri 11:35:38 AM 42.7136 -84.2739 88° East 385 443 12,500 -1,700 Descending Cleveland Center
Fri 11:36:09 AM 42.7092 -84.2200 96° East 385 443 11,800 -1,770 Descending Cleveland Center
Fri 11:36:39 AM 42.7094 -84.1408 90° East 351 404 10,700 -1,700 Descending Cleveland Center
Fri 11:37:09 AM 42.7069 -84.0928 94° East 360 414 10,100 -1,500 Descending Cleveland Center
Fri 11:37:39 AM 42.7069 -84.0192 90° East 305 351 9,200 -1,912 Descending Cleveland Center
Fri 11:38:40 AM 42.7144 -83.9094 85° East 292 336 7,200 -1,467 Descending Cleveland Center
Fri 11:39:09 AM 42.7178 -83.8672 84° East 294 338 7,000 -197 Descending Cleveland Center
Fri 11:39:41 AM 42.7217 -83.7994 86° East 294 338 7,000 -100 Level Cleveland Center
Fri 11:40:09 AM 42.7275 -83.7433 82° East 289 333 6,900 -689 Descending Cleveland Center
Fri 11:40:42 AM 42.7333 -83.6814 83° East 294 338 6,300 -1,100 Descending Cleveland Center
Fri 11:41:09 AM 42.7386 -83.6392 80° East 289 333 5,800 -1,082 Descending Cleveland Center
Fri 11:41:43 AM 42.7464 -83.5775 80° East 272 313 5,200 -800 Descending Cleveland Center
Fri 11:42:09 AM 42.7433 -83.5378 96° East 284 327 5,000 -197 Descending Cleveland Center
Fri 11:42:44 AM 42.7281 -83.4803 110° East 261 300 5,000 -126 Level Cleveland Center
Fri 11:43:44 AM 42.7075 -83.3889 107° East 261 300 4,800 -496 Descending Cleveland Center
Fri 11:44:45 AM 42.6844 -83.3033 110° East 234 269 4,000 -393 Descending Cleveland Center
Fri 11:45:46 AM 42.6400 -83.2419 135° Southeast 225 259 4,000 -492 Level Cleveland Center
Fri 11:46:47 AM 42.5889 -83.1919 144° Southeast 218 251 3,000 -472 Descending Cleveland Center
Fri 11:47:53 AM 42.5381 -83.1361 141° Southeast 208 239 3,000 -142 Level Cleveland Center
Fri 11:48:54 AM 42.4933 -83.0950 146° Southeast 182 209 2,700 -656 Descending Cleveland Center
Fri 11:50:01 AM 42.4544 -83.0569 144° Southeast 136 157 1,600 -879 Descending Cleveland Center
Fri 11:50:50 AM 42.4300 -83.0333 145° Southeast 124 143 1,000 -735 Descending Cleveland Center

Login

Don't have an account? Register now (free) for customized features, flight alerts, and more!